Time;durP1;ratioP1;P1;durP2;ratioP2;P2;SDS_P1;SDS_P2;PMS_P1;PMS_P2;Temp;Humidity;BMP_temperature;BMP_pressure;BME280_temperature;BME280_humidity;BME280_pressure;Samples;Min_cycle;Max_cycle;Signal;HPM_P1;HPM_P2
2021/05/11 00:00:31;;;;;;;5.10;2.30;;;;;;;;;;5091518;28;20364;-89
2021/05/11 00:02:57;;;;;;;5.18;2.40;;;;;;;;;;5089763;28;20408;-89
2021/05/11 00:05:26;;;;;;;4.57;2.00;;;;;;;;;;5091317;28;20850;-89
2021/05/11 00:07:53;;;;;;;4.70;2.00;;;;;;;;;;5091478;28;20368;-89
2021/05/11 00:10:19;;;;;;;4.60;2.38;;;;;;;;;;5090113;28;20391;-87
2021/05/11 00:12:45;;;;;;;4.65;2.20;;;;;;;;;;5090936;28;20364;-87
2021/05/11 00:15:11;;;;;;;5.50;1.90;;;;;;;;;;5091014;28;20460;-87
2021/05/11 00:17:39;;;;;;;2.70;2.03;;;;;;;;;;5091283;28;20379;-88
2021/05/11 00:20:06;;;;;;;2.95;2.05;;;;;;;;;;5091091;28;20456;-87
2021/05/11 00:22:32;;;;;;;3.13;2.03;;;;;;;;;;5089459;28;20415;-85
2021/05/11 00:24:58;;;;;;;2.28;2.00;;;;;;;;;;5089900;28;20945;-89
2021/05/11 00:27:24;;;;;;;5.50;2.28;;;;;;;;;;5089733;28;20364;-89
2021/05/11 00:29:50;;;;;;;2.90;2.03;;;;;;;;;;5089917;28;20400;-88
2021/05/11 00:32:16;;;;;;;4.60;2.20;;;;;;;;;;5089505;28;20376;-89
2021/05/11 00:34:42;;;;;;;4.73;2.03;;;;;;;;;;5090657;28;20384;-87
2021/05/11 00:37:07;;;;;;;3.43;2.10;;;;;;;;;;5091035;28;20391;-88
2021/05/11 00:39:34;;;;;;;3.70;2.15;;;;;;;;;;5090383;28;20772;-87
2021/05/11 00:42:00;;;;;;;3.00;2.03;;;;;;;;;;5089566;28;20407;-89
2021/05/11 00:44:27;;;;;;;4.78;2.08;;;;;;;;;;5089799;28;20862;-88
2021/05/11 00:46:57;;;;;;;3.70;1.90;;;;;;;;;;5089888;28;20869;-87
2021/05/11 00:49:23;;;;;;;4.57;2.10;;;;;;;;;;5090194;28;20380;-88
2021/05/11 00:51:50;;;;;;;4.57;1.90;;;;;;;;;;5093005;28;20449;-88
2021/05/11 00:54:16;;;;;;;3.85;2.15;;;;;;;;;;5093751;28;20924;-87
2021/05/11 00:56:43;;;;;;;3.33;2.20;;;;;;;;;;5093709;28;20877;-87
2021/05/11 00:59:15;;;;;;;3.47;2.00;;;;;;;;;;5093533;28;20399;-88
2021/05/11 01:01:40;;;;;;;4.30;1.95;;;;;;;;;;5093115;28;20373;-87
2021/05/11 01:04:06;;;;;;;4.63;2.15;;;;;;;;;;5093380;28;20862;-86
2021/05/11 01:06:32;;;;;;;3.17;2.00;;;;;;;;;;5094662;28;20371;-88
2021/05/11 01:08:58;;;;;;;3.00;2.20;;;;;;;;;;5093055;28;20869;-88
2021/05/11 01:11:25;;;;;;;2.40;2.00;;;;;;;;;;5093192;28;20373;-87
2021/05/11 01:13:51;;;;;;;4.82;2.00;;;;;;;;;;5094452;28;20881;-87
2021/05/11 01:16:17;;;;;;;4.40;2.10;;;;;;;;;;5093453;28;20430;-88
2021/05/11 01:18:44;;;;;;;3.03;1.88;;;;;;;;;;5094609;28;20388;-89
2021/05/11 01:24:19;;;;;;;4.20;2.28;;;;;;;;;;5077605;28;20441;-87
2021/05/11 01:29:28;;;;;;;2.33;1.80;;;;;;;;;;5093966;28;20774;-87
2021/05/11 01:48:58;;;;;;;3.08;1.83;;;;;;;;;;5093815;28;20437;-89
2021/05/11 01:51:07;;;;;;;2.83;2.10;;;;;;;;;;5085633;28;20380;-87
2021/05/11 01:58:56;;;;;;;3.28;1.90;;;;;;;;;;5093723;28;20814;-88
2021/05/11 02:22:39;;;;;;;4.20;2.27;;;;;;;;;;5093163;28;20943;-88
2021/05/11 02:23:22;;;;;;;3.90;2.40;;;;;;;;;;5092770;28;20402;-87
2021/05/11 02:25:48;;;;;;;2.30;1.90;;;;;;;;;;5091761;28;20396;-88
2021/05/11 02:28:14;;;;;;;5.10;2.10;;;;;;;;;;5092203;28;20473;-88
2021/05/11 02:30:40;;;;;;;13.93;2.95;;;;;;;;;;5092928;28;20368;-89
2021/05/11 02:33:06;;;;;;;6.97;2.37;;;;;;;;;;5091535;28;20398;-88
2021/05/11 02:35:34;;;;;;;4.47;2.60;;;;;;;;;;5091539;28;21179;-88
2021/05/11 02:38:00;;;;;;;2.83;1.90;;;;;;;;;;5091308;28;20400;-88
2021/05/11 02:40:26;;;;;;;4.20;2.30;;;;;;;;;;5092910;28;20730;-87
2021/05/11 02:42:57;;;;;;;2.75;2.00;;;;;;;;;;5091213;28;20388;-88
2021/05/11 02:45:23;;;;;;;3.50;2.00;;;;;;;;;;5091254;28;20866;-87
2021/05/11 02:47:50;;;;;;;3.30;2.00;;;;;;;;;;5091298;28;20391;-88
2021/05/11 02:50:21;;;;;;;3.00;2.30;;;;;;;;;;5091378;28;20547;-87
2021/05/11 02:52:47;;;;;;;3.08;1.98;;;;;;;;;;5092085;28;20392;-88
2021/05/11 02:55:14;;;;;;;3.17;2.17;;;;;;;;;;5091298;28;20403;-88
2021/05/11 02:57:40;;;;;;;3.38;2.13;;;;;;;;;;5092641;28;20451;-86
2021/05/11 03:00:07;;;;;;;3.70;2.15;;;;;;;;;;5092119;28;20411;-89
2021/05/11 03:02:33;;;;;;;2.80;2.15;;;;;;;;;;5090666;28;20404;-88
2021/05/11 03:04:59;;;;;;;4.53;2.37;;;;;;;;;;5090991;28;20368;-87
2021/05/11 03:07:25;;;;;;;4.50;2.13;;;;;;;;;;5090732;28;20754;-88
2021/05/11 03:09:51;;;;;;;3.50;2.20;;;;;;;;;;5090742;28;20833;-88
2021/05/11 03:12:17;;;;;;;3.60;2.28;;;;;;;;;;5090573;28;20464;-88
2021/05/11 03:14:43;;;;;;;2.92;1.98;;;;;;;;;;5091195;28;20742;-87
2021/05/11 03:17:09;;;;;;;4.22;2.60;;;;;;;;;;5090731;28;20391;-88
2021/05/11 03:19:35;;;;;;;4.50;2.20;;;;;;;;;;5091839;28;20372;-87
2021/05/11 03:22:01;;;;;;;3.30;2.17;;;;;;;;;;5090273;28;20395;-88
2021/05/11 03:24:27;;;;;;;3.90;2.38;;;;;;;;;;5090558;28;20372;-87
2021/05/11 03:26:53;;;;;;;4.03;2.30;;;;;;;;;;5091310;28;20426;-87
2021/05/11 03:29:19;;;;;;;4.18;2.30;;;;;;;;;;5090466;28;20373;-87
2021/05/11 03:31:45;;;;;;;3.60;2.30;;;;;;;;;;5091532;28;20368;-88
2021/05/11 03:34:11;;;;;;;3.43;2.53;;;;;;;;;;5091694;28;20390;-89
2021/05/11 03:36:37;;;;;;;3.40;2.20;;;;;;;;;;5090394;28;20369;-88
2021/05/11 03:39:08;;;;;;;4.05;2.25;;;;;;;;;;5090245;28;20439;-88
2021/05/11 03:41:39;;;;;;;7.47;3.05;;;;;;;;;;5091452;28;20380;-88
2021/05/11 03:44:53;;;;;;;3.13;2.30;;;;;;;;;;5090156;28;20368;-88
2021/05/11 03:46:55;;;;;;;3.20;2.50;;;;;;;;;;5085313;28;20399;-87
2021/05/11 03:49:21;;;;;;;3.30;2.15;;;;;;;;;;5089768;28;20813;-88
2021/05/11 03:51:47;;;;;;;2.90;2.60;;;;;;;;;;5089581;28;20384;-88
2021/05/11 03:54:13;;;;;;;3.95;2.30;;;;;;;;;;5089944;28;20461;-88
2021/05/11 03:56:39;;;;;;;4.13;2.42;;;;;;;;;;5089719;28;20383;-88
2021/05/11 03:59:06;;;;;;;3.10;2.42;;;;;;;;;;5089356;28;20485;-88
2021/05/11 04:01:32;;;;;;;4.60;2.60;;;;;;;;;;5090643;28;20467;-88
2021/05/11 04:03:58;;;;;;;3.70;2.30;;;;;;;;;;5091067;28;20933;-87
2021/05/11 04:06:24;;;;;;;5.13;2.55;;;;;;;;;;5090296;28;20486;-88
2021/05/11 04:09:11;;;;;;;3.88;2.58;;;;;;;;;;5089833;28;20459;-88
2021/05/11 04:12:01;;;;;;;4.75;2.42;;;;;;;;;;5089160;28;20503;-88
2021/05/11 04:17:10;;;;;;;3.83;2.60;;;;;;;;;;5090994;28;20432;-87
2021/05/11 04:19:36;;;;;;;3.65;2.65;;;;;;;;;;5089853;28;20878;-88
2021/05/11 04:22:02;;;;;;;4.47;2.63;;;;;;;;;;5088839;28;20388;-87
2021/05/11 04:24:29;;;;;;;3.93;2.67;;;;;;;;;;5091395;28;20487;-88
2021/05/11 04:26:56;;;;;;;3.70;2.60;;;;;;;;;;5093417;28;20372;-88
2021/05/11 04:29:22;;;;;;;3.88;2.90;;;;;;;;;;5095481;28;20410;-87
2021/05/11 04:31:48;;;;;;;3.65;2.60;;;;;;;;;;5093213;28;20369;-87
2021/05/11 04:34:14;;;;;;;3.25;2.60;;;;;;;;;;5094496;28;20367;-88
2021/05/11 04:36:40;;;;;;;4.50;2.50;;;;;;;;;;5093519;28;20755;-86
2021/05/11 04:39:06;;;;;;;4.97;2.42;;;;;;;;;;5093350;28;20405;-87
2021/05/11 04:41:32;;;;;;;4.07;2.80;;;;;;;;;;5094652;28;21301;-88
2021/05/11 04:44:03;;;;;;;4.10;2.47;;;;;;;;;;5093956;28;20408;-88
2021/05/11 04:46:40;;;;;;;3.90;2.70;;;;;;;;;;5093692;28;20376;-87
2021/05/11 04:49:06;;;;;;;5.53;3.20;;;;;;;;;;5094857;28;20372;-91
2021/05/11 04:51:33;;;;;;;4.93;3.30;;;;;;;;;;5092905;28;20855;-89
2021/05/11 04:53:59;;;;;;;6.13;2.80;;;;;;;;;;5094700;28;20361;-86
2021/05/11 04:56:25;;;;;;;5.80;3.20;;;;;;;;;;5093069;28;20377;-89
2021/05/11 04:58:50;;;;;;;6.57;3.15;;;;;;;;;;5093230;28;20376;-90
2021/05/11 05:01:16;;;;;;;19.60;4.50;;;;;;;;;;5093304;28;20428;-89
2021/05/11 05:03:46;;;;;;;10.02;3.28;;;;;;;;;;5093140;28;20404;-92
2021/05/11 05:06:12;;;;;;;7.07;3.38;;;;;;;;;;5094589;28;20379;-90
2021/05/11 05:08:38;;;;;;;4.93;3.33;;;;;;;;;;5094301;28;20364;-89
2021/05/11 05:11:04;;;;;;;3.67;3.30;;;;;;;;;;5093315;28;20408;-89
2021/05/11 05:13:31;;;;;;;4.90;3.13;;;;;;;;;;5094056;28;20461;-89
2021/05/11 05:15:58;;;;;;;3.58;3.15;;;;;;;;;;5094606;28;20380;-89
2021/05/11 05:18:24;;;;;;;6.57;3.10;;;;;;;;;;5094269;28;20847;-89
2021/05/11 05:20:51;;;;;;;9.07;3.80;;;;;;;;;;5092933;28;20387;-89
2021/05/11 05:23:19;;;;;;;9.73;3.75;;;;;;;;;;5092614;28;20763;-90
2021/05/11 05:26:02;;;;;;;3.85;3.22;;;;;;;;;;5093795;28;20376;-90
2021/05/11 05:28:28;;;;;;;5.45;3.40;;;;;;;;;;5094161;28;20944;-89
2021/05/11 05:30:54;;;;;;;8.98;3.90;;;;;;;;;;5093983;28;20369;-90
2021/05/11 05:33:29;;;;;;;6.65;3.60;;;;;;;;;;5092066;28;20372;-84
2021/05/11 05:35:58;;;;;;;4.90;3.22;;;;;;;;;;5091653;28;20384;-90
2021/05/11 05:38:25;;;;;;;3.83;3.33;;;;;;;;;;5092678;28;21064;-89
2021/05/11 05:41:21;;;;;;;7.55;3.60;;;;;;;;;;5092976;28;20377;-91
2021/05/11 05:43:41;;;;;;;5.03;3.50;;;;;;;;;;5091952;28;20418;-89
2021/05/11 05:46:07;;;;;;;5.93;4.00;;;;;;;;;;5090029;28;20750;-87
2021/05/11 05:48:33;;;;;;;5.38;3.53;;;;;;;;;;5092551;28;20426;-88
2021/05/11 05:51:01;;;;;;;4.93;3.40;;;;;;;;;;5093082;28;20379;-89
2021/05/11 05:53:34;;;;;;;5.78;3.72;;;;;;;;;;5092424;28;20379;-87
2021/05/11 05:56:00;;;;;;;5.78;3.60;;;;;;;;;;5092372;28;20364;-86
2021/05/11 05:58:26;;;;;;;4.93;3.55;;;;;;;;;;5093078;28;20364;-88
2021/05/11 06:00:58;;;;;;;6.65;3.50;;;;;;;;;;5091850;28;20361;-86
2021/05/11 06:06:03;;;;;;;4.72;3.30;;;;;;;;;;5092870;28;20368;-88
2021/05/11 06:08:30;;;;;;;6.15;4.00;;;;;;;;;;5091806;28;20388;-89
2021/05/11 06:11:02;;;;;;;6.25;3.67;;;;;;;;;;5092040;28;20388;-89
2021/05/11 06:13:41;;;;;;;6.38;3.67;;;;;;;;;;5091387;28;20419;-88
2021/05/11 06:18:55;;;;;;;5.18;3.65;;;;;;;;;;5093366;28;20427;-87
2021/05/11 06:21:21;;;;;;;25.50;5.13;;;;;;;;;;5091509;28;20882;-89
2021/05/11 06:23:47;;;;;;;5.57;4.00;;;;;;;;;;5091662;28;20408;-90
2021/05/11 06:26:13;;;;;;;6.38;3.78;;;;;;;;;;5091380;28;20376;-89
2021/05/11 06:28:41;;;;;;;8.95;3.80;;;;;;;;;;5091418;28;20373;-88
2021/05/11 06:31:08;;;;;;;19.02;4.30;;;;;;;;;;5092811;28;20708;-88
2021/05/11 06:33:34;;;;;;;5.50;3.83;;;;;;;;;;5091037;28;20414;-88
2021/05/11 06:36:00;;;;;;;6.03;3.88;;;;;;;;;;5092154;28;20364;-87
2021/05/11 06:38:26;;;;;;;5.65;3.50;;;;;;;;;;5091427;28;20369;-87
2021/05/11 06:40:52;;;;;;;5.07;3.33;;;;;;;;;;5091361;28;20359;-88
2021/05/11 06:43:30;;;;;;;5.78;3.40;;;;;;;;;;5091228;28;20407;-88
2021/05/11 06:48:30;;;;;;;14.00;4.00;;;;;;;;;;5092180;28;20897;-88
2021/05/11 06:52:44;;;;;;;8.48;3.72;;;;;;;;;;5090881;28;20380;-88
2021/05/11 06:53:51;;;;;;;8.18;3.60;;;;;;;;;;5091918;28;20369;-88
2021/05/11 06:56:18;;;;;;;5.70;3.58;;;;;;;;;;5091957;28;20377;-88
2021/05/11 06:58:44;;;;;;;6.45;3.65;;;;;;;;;;5090650;28;20372;-88
2021/05/11 07:01:10;;;;;;;11.88;3.80;;;;;;;;;;5091107;28;20373;-87
2021/05/11 07:03:36;;;;;;;7.75;4.00;;;;;;;;;;5091842;28;20856;-88
2021/05/11 07:06:02;;;;;;;29.33;5.65;;;;;;;;;;5091030;28;20468;-87
2021/05/11 07:08:45;;;;;;;28.63;5.20;;;;;;;;;;5090659;28;20765;-87
2021/05/11 07:13:40;;;;;;;8.52;3.53;;;;;;;;;;5092366;28;20400;-87
2021/05/11 07:16:06;;;;;;;7.00;3.97;;;;;;;;;;5090902;28;20408;-88
2021/05/11 07:18:32;;;;;;;9.00;3.92;;;;;;;;;;5090538;28;20368;-88
2021/05/11 07:21:00;;;;;;;7.60;3.77;;;;;;;;;;5090787;28;20380;-88
2021/05/11 07:23:26;;;;;;;7.75;4.63;;;;;;;;;;5091869;28;20414;-88
2021/05/11 07:31:12;;;;;;;8.93;4.60;;;;;;;;;;5091961;28;21002;-88
2021/05/11 07:33:45;;;;;;;8.80;4.47;;;;;;;;;;5090135;28;20368;-89
2021/05/11 07:36:12;;;;;;;5.85;4.50;;;;;;;;;;5090555;28;20380;-89
2021/05/11 07:38:38;;;;;;;7.47;4.10;;;;;;;;;;5091012;28;20396;-90
2021/05/11 07:41:05;;;;;;;8.00;4.20;;;;;;;;;;5090201;28;20424;-90
2021/05/11 07:43:32;;;;;;;7.95;4.40;;;;;;;;;;5090204;28;20410;-88
2021/05/11 08:05:17;;;;;;;8.05;4.78;;;;;;;;;;5093655;28;20865;-87
2021/05/11 08:10:34;;;;;;;7.57;4.55;;;;;;;;;;5092512;28;20375;-89
2021/05/11 08:15:52;;;;;;;6.93;4.88;;;;;;;;;;5092002;28;20467;-88
2021/05/11 08:29:00;;;;;;;6.45;4.30;;;;;;;;;;5092101;28;20391;-86
2021/05/11 08:31:26;;;;;;;12.38;5.22;;;;;;;;;;5091708;28;20862;-87
2021/05/11 08:33:52;;;;;;;7.03;4.60;;;;;;;;;;5090510;28;20360;-87
2021/05/11 08:36:18;;;;;;;9.25;4.90;;;;;;;;;;5091954;28;20396;-86
2021/05/11 08:38:44;;;;;;;8.13;4.90;;;;;;;;;;5092215;28;20459;-87
2021/05/11 08:41:10;;;;;;;8.27;4.10;;;;;;;;;;5090873;28;20468;-86
2021/05/11 08:43:37;;;;;;;10.68;5.00;;;;;;;;;;5089327;28;20396;-87
2021/05/11 08:46:05;;;;;;;8.07;5.13;;;;;;;;;;5089466;28;20369;-89
2021/05/11 08:48:31;;;;;;;10.25;4.57;;;;;;;;;;5089042;28;20881;-86
2021/05/11 08:51:18;;;;;;;12.77;5.10;;;;;;;;;;5089968;28;20368;-86
2021/05/11 09:05:23;;;;;;;9.15;4.97;;;;;;;;;;5090847;28;20426;-88
2021/05/11 09:29:13;;;;;;;6.85;4.32;;;;;;;;;;5079799;28;20402;-89
2021/05/11 09:34:18;;;;;;;9.90;4.30;;;;;;;;;;5085066;28;20368;-91
2021/05/11 10:48:20;;;;;;;7.47;5.00;;;;;;;;;;5071601;28;20389;-79
2021/05/11 10:50:57;;;;;;;9.45;5.15;;;;;;;;;;5071369;28;20379;-81
2021/05/11 10:53:35;;;;;;;5.63;5.05;;;;;;;;;;5071090;28;20400;-82
2021/05/11 10:56:19;;;;;;;8.10;4.90;;;;;;;;;;5069901;28;20390;-81
2021/05/11 10:59:05;;;;;;;9.40;5.35;;;;;;;;;;5070017;28;20705;-82
2021/05/11 11:01:34;;;;;;;6.43;4.50;;;;;;;;;;5071092;28;20929;-83
2021/05/11 11:04:10;;;;;;;8.00;4.85;;;;;;;;;;5071048;28;20410;-82
2021/05/11 11:06:55;;;;;;;8.93;4.80;;;;;;;;;;5071047;28;20460;-82
2021/05/11 11:09:21;;;;;;;7.22;4.75;;;;;;;;;;5070811;28;20461;-82
2021/05/11 11:11:47;;;;;;;6.95;4.70;;;;;;;;;;5071040;28;20386;-81
2021/05/11 11:14:14;;;;;;;8.63;4.70;;;;;;;;;;5070928;28;20389;-82
2021/05/11 11:16:40;;;;;;;9.10;5.45;;;;;;;;;;5070964;28;20427;-82
2021/05/11 11:19:09;;;;;;;6.13;5.10;;;;;;;;;;5070574;28;20405;-82
2021/05/11 11:24:34;;;;;;;7.47;5.30;;;;;;;;;;5071016;28;20390;-81
2021/05/11 11:27:00;;;;;;;8.00;4.78;;;;;;;;;;5072757;28;20404;-80
2021/05/11 11:29:27;;;;;;;7.28;4.57;;;;;;;;;;5090771;28;20369;-82
2021/05/11 11:31:54;;;;;;;12.40;4.78;;;;;;;;;;5090843;28;20365;-81
2021/05/11 11:34:21;;;;;;;8.27;4.80;;;;;;;;;;5090056;28;20708;-81
2021/05/11 11:36:48;;;;;;;9.10;5.07;;;;;;;;;;5090517;28;20369;-82
2021/05/11 11:39:22;;;;;;;10.18;5.63;;;;;;;;;;5090895;28;20356;-80
2021/05/11 11:41:48;;;;;;;6.80;5.30;;;;;;;;;;5090839;28;20370;-81
2021/05/11 11:44:15;;;;;;;6.65;4.50;;;;;;;;;;5089492;28;20459;-82
2021/05/11 11:46:41;;;;;;;7.97;5.13;;;;;;;;;;5090898;28;20427;-82
2021/05/11 11:49:12;;;;;;;6.50;5.13;;;;;;;;;;5090950;28;20372;-82
2021/05/11 11:51:39;;;;;;;7.43;5.28;;;;;;;;;;5090639;28;20368;-82
2021/05/11 11:54:07;;;;;;;8.83;5.03;;;;;;;;;;5089392;28;20755;-83
2021/05/11 11:59:21;;;;;;;7.70;4.53;;;;;;;;;;5090580;28;20901;-82
2021/05/11 12:01:54;;;;;;;6.40;4.53;;;;;;;;;;5090303;28;20461;-82
2021/05/11 12:04:20;;;;;;;9.45;5.18;;;;;;;;;;5090958;28;20739;-80
2021/05/11 12:06:49;;;;;;;7.80;5.10;;;;;;;;;;5089760;28;20481;-82
2021/05/11 12:09:15;;;;;;;7.15;4.80;;;;;;;;;;5090381;28;20368;-82
2021/05/11 12:11:41;;;;;;;7.93;4.40;;;;;;;;;;5090029;28;20409;-80
2021/05/11 12:14:07;;;;;;;9.43;4.82;;;;;;;;;;5090879;28;20372;-81
2021/05/11 12:16:40;;;;;;;5.33;4.70;;;;;;;;;;5089441;28;20873;-80
2021/05/11 12:19:18;;;;;;;11.68;4.47;;;;;;;;;;5090612;28;20379;-84
2021/05/11 12:22:09;;;;;;;6.95;4.80;;;;;;;;;;5090340;28;20434;-80
2021/05/11 12:24:44;;;;;;;9.15;5.20;;;;;;;;;;5089224;28;20400;-83
2021/05/11 12:27:10;;;;;;;7.13;4.55;;;;;;;;;;5082884;28;20394;-82
2021/05/11 12:29:36;;;;;;;13.93;5.25;;;;;;;;;;5071419;28;20520;-82
2021/05/11 12:32:02;;;;;;;10.18;4.97;;;;;;;;;;5076135;28;20380;-82
2021/05/11 12:34:28;;;;;;;9.55;5.13;;;;;;;;;;5087407;28;20376;-81
2021/05/11 12:36:56;;;;;;;12.75;5.07;;;;;;;;;;5086327;28;20406;-83
2021/05/11 12:39:50;;;;;;;8.90;4.90;;;;;;;;;;5085206;28;20408;-83
2021/05/11 12:42:24;;;;;;;7.18;4.90;;;;;;;;;;5086414;28;20373;-83
2021/05/11 12:45:02;;;;;;;10.90;4.80;;;;;;;;;;5082509;28;20441;-82
2021/05/11 12:47:39;;;;;;;7.50;4.80;;;;;;;;;;5088950;28;20885;-84
2021/05/11 12:50:27;;;;;;;12.50;4.90;;;;;;;;;;5089809;28;20376;-83
2021/05/11 12:52:54;;;;;;;9.38;4.40;;;;;;;;;;5090094;28;20364;-83
2021/05/11 13:01:26;;;;;;;10.30;5.28;;;;;;;;;;5090221;28;20399;-83
2021/05/11 13:27:28;;;;;;;8.63;5.13;;;;;;;;;;5093168;28;20371;-85
2021/05/11 13:35:11;;;;;;;7.47;4.78;;;;;;;;;;5091700;28;20465;-82
2021/05/11 13:37:37;;;;;;;9.45;5.45;;;;;;;;;;5092789;28;20376;-83
2021/05/11 13:40:05;;;;;;;6.60;5.20;;;;;;;;;;5091042;28;20406;-83
2021/05/11 13:42:31;;;;;;;9.23;5.57;;;;;;;;;;5092877;28;20465;-82
2021/05/11 13:44:57;;;;;;;8.40;5.22;;;;;;;;;;5080156;28;20431;-83
2021/05/11 13:47:24;;;;;;;9.18;5.75;;;;;;;;;;5075484;28;20381;-82
2021/05/11 13:49:56;;;;;;;9.90;5.60;;;;;;;;;;5091860;28;20432;-82
2021/05/11 13:52:22;;;;;;;9.13;5.63;;;;;;;;;;5090218;28;20429;-82
2021/05/11 13:54:54;;;;;;;9.00;5.50;;;;;;;;;;5081302;28;20469;-83
2021/05/11 14:03:03;;;;;;;12.00;5.55;;;;;;;;;;5070051;28;20425;-83
2021/05/11 14:05:29;;;;;;;9.07;5.57;;;;;;;;;;5078975;28;20382;-85
2021/05/11 14:07:56;;;;;;;7.65;5.13;;;;;;;;;;5090649;28;20389;-85
2021/05/11 14:10:22;;;;;;;12.07;5.47;;;;;;;;;;5091335;28;20415;-85
2021/05/11 14:12:48;;;;;;;8.90;5.50;;;;;;;;;;5090908;28;20889;-85
2021/05/11 14:15:14;;;;;;;6.90;5.38;;;;;;;;;;5092265;28;20711;-85
2021/05/11 14:17:40;;;;;;;10.47;6.10;;;;;;;;;;5092408;28;20364;-84
2021/05/11 14:20:07;;;;;;;9.57;5.90;;;;;;;;;;5090449;28;20372;-84
2021/05/11 14:22:33;;;;;;;11.25;5.53;;;;;;;;;;5090893;28;20407;-85
2021/05/11 14:24:58;;;;;;;8.05;5.00;;;;;;;;;;5092298;28;20854;-85
2021/05/11 14:27:25;;;;;;;8.67;5.40;;;;;;;;;;5092217;28;20372;-84
2021/05/11 14:29:51;;;;;;;8.38;5.32;;;;;;;;;;5092022;28;20365;-83
2021/05/11 14:32:17;;;;;;;11.23;5.32;;;;;;;;;;5091594;28;20380;-82
2021/05/11 14:34:43;;;;;;;10.82;5.35;;;;;;;;;;5090610;28;20412;-84
2021/05/11 14:37:09;;;;;;;12.43;5.63;;;;;;;;;;5091697;28;20869;-84
2021/05/11 14:39:35;;;;;;;12.18;5.40;;;;;;;;;;5090726;28;20369;-84
2021/05/11 14:42:01;;;;;;;6.55;5.15;;;;;;;;;;5090617;28;20366;-83
2021/05/11 14:44:28;;;;;;;8.73;5.10;;;;;;;;;;5091730;28;20429;-83
2021/05/11 14:46:58;;;;;;;9.07;5.60;;;;;;;;;;5090423;28;20391;-84
2021/05/11 14:49:24;;;;;;;9.30;5.15;;;;;;;;;;5090354;28;20421;-84
2021/05/11 14:51:50;;;;;;;10.83;5.33;;;;;;;;;;5091402;28;20365;-84
2021/05/11 14:54:16;;;;;;;7.70;5.47;;;;;;;;;;5091195;28;20372;-84
2021/05/11 14:56:42;;;;;;;11.18;5.70;;;;;;;;;;5090944;28;20891;-83
2021/05/11 14:59:09;;;;;;;9.80;5.53;;;;;;;;;;5089995;28;20377;-83
2021/05/11 15:01:35;;;;;;;10.40;5.35;;;;;;;;;;5090144;28;20405;-82
2021/05/11 15:04:01;;;;;;;8.67;5.80;;;;;;;;;;5091078;28;20449;-83
2021/05/11 15:06:27;;;;;;;10.68;5.90;;;;;;;;;;5090079;28;20509;-84
2021/05/11 15:08:53;;;;;;;7.10;5.70;;;;;;;;;;5088870;28;20459;-84
2021/05/11 15:11:19;;;;;;;6.65;5.35;;;;;;;;;;5089936;28;20735;-84
2021/05/11 15:13:47;;;;;;;7.20;5.20;;;;;;;;;;5091195;28;20376;-83
2021/05/11 15:16:19;;;;;;;7.28;5.60;;;;;;;;;;5089446;28;20391;-83
2021/05/11 15:18:45;;;;;;;9.93;5.65;;;;;;;;;;5090147;28;20380;-83
2021/05/11 15:21:11;;;;;;;10.13;5.65;;;;;;;;;;5089599;28;20406;-84
2021/05/11 15:23:36;;;;;;;8.38;5.63;;;;;;;;;;5090962;28;20932;-84
2021/05/11 15:26:03;;;;;;;9.80;6.05;;;;;;;;;;5090876;28;20378;-83
2021/05/11 15:28:29;;;;;;;7.82;5.55;;;;;;;;;;5090986;28;20377;-83
2021/05/11 15:30:58;;;;;;;9.52;5.60;;;;;;;;;;5090810;28;20368;-83
2021/05/11 15:33:25;;;;;;;13.25;5.50;;;;;;;;;;5090733;28;20368;-83
2021/05/11 15:35:52;;;;;;;23.97;6.33;;;;;;;;;;5089530;28;20376;-83
2021/05/11 15:38:19;;;;;;;11.48;5.82;;;;;;;;;;5090868;28;20422;-82
2021/05/11 15:40:45;;;;;;;8.48;5.90;;;;;;;;;;5089159;28;20442;-83
2021/05/11 15:43:12;;;;;;;13.35;6.65;;;;;;;;;;5090748;28;20426;-83
2021/05/11 15:45:38;;;;;;;8.50;5.70;;;;;;;;;;5090462;28;20376;-82
2021/05/11 15:48:08;;;;;;;12.88;5.70;;;;;;;;;;5090737;28;20743;-82
2021/05/11 15:50:38;;;;;;;8.05;5.20;;;;;;;;;;5089097;28;20423;-83
2021/05/11 15:53:08;;;;;;;11.50;5.37;;;;;;;;;;5089210;28;20823;-83
2021/05/11 15:55:35;;;;;;;7.15;5.72;;;;;;;;;;5078765;28;20386;-82
2021/05/11 15:58:01;;;;;;;10.43;5.43;;;;;;;;;;5080298;28;20937;-84
2021/05/11 16:00:28;;;;;;;11.88;5.75;;;;;;;;;;5080352;28;20372;-84
2021/05/11 16:02:55;;;;;;;8.52;5.07;;;;;;;;;;5072279;28;20409;-83
2021/05/11 16:05:22;;;;;;;7.72;5.50;;;;;;;;;;5067411;28;20378;-84
2021/05/11 16:07:48;;;;;;;9.88;5.50;;;;;;;;;;5068301;28;20392;-84
2021/05/11 16:10:15;;;;;;;8.83;5.53;;;;;;;;;;5068414;28;20377;-84
2021/05/11 16:12:41;;;;;;;10.00;5.40;;;;;;;;;;5067866;28;20370;-83
2021/05/11 16:15:15;;;;;;;10.47;5.43;;;;;;;;;;5068153;28;20436;-83
2021/05/11 16:17:41;;;;;;;9.45;5.18;;;;;;;;;;5067963;28;20378;-82
2021/05/11 16:20:09;;;;;;;5.82;4.00;;;;;;;;;;5069127;28;20442;-82
2021/05/11 16:22:35;;;;;;;7.20;4.18;;;;;;;;;;5073845;28;20492;-82
2021/05/11 16:25:01;;;;;;;6.70;3.75;;;;;;;;;;5074073;28;20378;-83
2021/05/11 16:27:27;;;;;;;10.60;4.53;;;;;;;;;;5074119;28;20365;-83
2021/05/11 16:29:54;;;;;;;12.50;4.25;;;;;;;;;;5083646;28;20788;-82
2021/05/11 16:32:19;;;;;;;8.05;4.15;;;;;;;;;;5092850;28;20877;-83
2021/05/11 16:34:46;;;;;;;5.07;3.70;;;;;;;;;;5092194;28;20380;-83
2021/05/11 16:37:12;;;;;;;6.60;3.67;;;;;;;;;;5092640;28;20884;-83
2021/05/11 16:39:39;;;;;;;6.15;3.80;;;;;;;;;;5094193;28;20365;-82
2021/05/11 16:42:06;;;;;;;5.53;3.80;;;;;;;;;;5093826;28;20463;-83
2021/05/11 16:44:32;;;;;;;7.93;3.60;;;;;;;;;;5091480;28;20389;-84
2021/05/11 16:47:01;;;;;;;6.38;3.50;;;;;;;;;;5093623;28;20416;-83
2021/05/11 16:49:28;;;;;;;7.18;4.00;;;;;;;;;;5093871;28;20459;-84
2021/05/11 16:51:55;;;;;;;6.93;4.00;;;;;;;;;;5091635;28;20381;-83
2021/05/11 16:54:22;;;;;;;5.47;4.00;;;;;;;;;;5092604;28;20893;-84
2021/05/11 16:56:49;;;;;;;7.00;3.80;;;;;;;;;;5092308;28;20862;-85
2021/05/11 16:59:18;;;;;;;5.95;3.90;;;;;;;;;;5092093;28;20364;-85
2021/05/11 17:01:46;;;;;;;5.53;4.00;;;;;;;;;;5091373;28;20385;-85
2021/05/11 17:04:24;;;;;;;7.63;4.22;;;;;;;;;;5091095;28;20439;-82
2021/05/11 17:06:51;;;;;;;5.82;4.40;;;;;;;;;;5091649;28;20384;-85
2021/05/11 17:09:17;;;;;;;6.97;4.07;;;;;;;;;;5090525;28;20386;-84
2021/05/11 17:11:44;;;;;;;6.40;4.15;;;;;;;;;;5091342;28;20377;-85
2021/05/11 17:14:11;;;;;;;8.07;4.60;;;;;;;;;;5092369;28;20412;-86
2021/05/11 17:16:38;;;;;;;8.10;3.88;;;;;;;;;;5092162;28;20368;-85
2021/05/11 17:19:05;;;;;;;6.67;4.40;;;;;;;;;;5092194;28;20380;-90
2021/05/11 17:21:31;;;;;;;7.07;4.25;;;;;;;;;;5091675;28;20368;-85
2021/05/11 17:23:59;;;;;;;6.87;4.33;;;;;;;;;;5091121;28;20429;-84
2021/05/11 17:26:26;;;;;;;8.15;4.70;;;;;;;;;;5092407;28;20777;-85
2021/05/11 17:28:55;;;;;;;7.13;4.53;;;;;;;;;;5091714;28;20381;-87
2021/05/11 17:31:23;;;;;;;5.85;4.45;;;;;;;;;;5082918;28;20380;-87
2021/05/11 17:33:50;;;;;;;5.72;4.68;;;;;;;;;;5079445;28;20371;-88
2021/05/11 17:36:16;;;;;;;6.63;4.70;;;;;;;;;;5073081;28;20636;-87
2021/05/11 17:38:42;;;;;;;8.05;4.60;;;;;;;;;;5071563;28;20374;-86
2021/05/11 17:41:11;;;;;;;8.73;4.90;;;;;;;;;;5071759;28;20381;-91
2021/05/11 17:43:37;;;;;;;9.55;4.93;;;;;;;;;;5090471;28;20413;-87
2021/05/11 17:46:05;;;;;;;8.15;4.70;;;;;;;;;;5091779;28;20377;-87
2021/05/11 17:48:35;;;;;;;6.82;4.70;;;;;;;;;;5090103;28;20388;-88
2021/05/11 17:51:02;;;;;;;7.53;4.82;;;;;;;;;;5091203;28;20391;-86
2021/05/11 17:53:29;;;;;;;9.02;5.38;;;;;;;;;;5090337;28;20746;-88
2021/05/11 17:55:58;;;;;;;8.23;5.30;;;;;;;;;;5088113;28;20380;-85
2021/05/11 17:58:25;;;;;;;8.68;4.90;;;;;;;;;;5090561;28;20411;-84
2021/05/11 18:00:53;;;;;;;7.28;5.35;;;;;;;;;;5088444;28;20389;-89
2021/05/11 18:03:22;;;;;;;6.93;4.83;;;;;;;;;;5089970;28;20624;-87
2021/05/11 18:05:49;;;;;;;7.15;4.88;;;;;;;;;;5091224;28;20471;-87
2021/05/11 18:08:17;;;;;;;7.93;5.32;;;;;;;;;;5090634;28;20396;-87
2021/05/11 18:10:43;;;;;;;7.70;5.03;;;;;;;;;;5091492;28;20369;-86
2021/05/11 18:13:10;;;;;;;6.13;4.90;;;;;;;;;;5091065;28;20773;-86
2021/05/11 18:15:36;;;;;;;9.60;5.20;;;;;;;;;;5070993;28;20473;-87
2021/05/11 18:18:03;;;;;;;8.75;5.18;;;;;;;;;;5070718;28;20381;-86
2021/05/11 18:20:29;;;;;;;7.07;5.28;;;;;;;;;;5086868;28;20477;-86
2021/05/11 18:22:55;;;;;;;9.07;5.88;;;;;;;;;;5085723;28;20423;-87
2021/05/11 18:25:22;;;;;;;6.97;4.88;;;;;;;;;;5091138;28;20381;-86
2021/05/11 18:27:50;;;;;;;8.77;5.10;;;;;;;;;;5081600;28;20860;-87
2021/05/11 18:30:18;;;;;;;9.97;5.87;;;;;;;;;;5091025;28;20898;-87
2021/05/11 18:32:47;;;;;;;8.20;5.22;;;;;;;;;;5080716;28;20412;-87
2021/05/11 18:35:13;;;;;;;6.55;5.20;;;;;;;;;;5071945;28;20457;-86
2021/05/11 18:37:47;;;;;;;8.38;5.38;;;;;;;;;;5079672;28;20372;-86
2021/05/11 18:40:13;;;;;;;8.25;5.15;;;;;;;;;;5090786;28;20796;-87
2021/05/11 18:42:40;;;;;;;7.93;5.60;;;;;;;;;;5082543;28;20402;-86
2021/05/11 18:45:07;;;;;;;8.13;5.57;;;;;;;;;;5074219;28;20461;-86
2021/05/11 18:47:38;;;;;;;7.10;5.43;;;;;;;;;;5090944;28;20912;-87
2021/05/11 18:50:05;;;;;;;8.27;5.75;;;;;;;;;;5091184;28;20468;-86
2021/05/11 18:52:31;;;;;;;5.82;5.10;;;;;;;;;;5086273;28;20441;-86
2021/05/11 18:54:58;;;;;;;9.93;5.95;;;;;;;;;;5090716;28;20377;-86
2021/05/11 18:57:25;;;;;;;8.05;5.70;;;;;;;;;;5085880;28;20372;-88
2021/05/11 18:59:52;;;;;;;7.90;5.47;;;;;;;;;;5089817;28;20886;-86